PWSweather.com
Personal Weather Stations
Station Observations
KNJOAKLA6
Oakland, NJ 07436

Oakland, NJ 07436

Lat: 41.041, Lon: -74.231

Elevation: 280

Station Type: Davis VP 2

http://stratacolorado.com/oaknjwx/

High Low Average
Temperature 30.4°F-0.9°C 30.2°F-1.0°C 30.3°F-0.9°C
Dew Point 21.7°F-5.7°C 21.5°F-5.8°C 21.6°F-5.8°C
Winds Calm Calm Calm Calm Calm NNECalm NNE
Wind Gusts 2.0 mph3.2 kmh 1.0 mph1.6 kmh 1.0 mph1.6 kmh
Humidity 70% 69% 70%
Pressure 30.59 in1035.9 mb 30.58 in1035.6 mb -
Precipitation 0.00 in0.0 mm - -
Hour Temp Dew Point Humidity Winds Wind Gusts Pressure Precip Precip Rate Daily Precip Total
12:00 AM 31.7°F-0.2°C 22.0°F-5.6°C 67% Calm Calm -- 30.56 in1034.9 mb 0.00 in0.0 mm 0.00 in/hr0.0 mm/hr 0.02 in0.5 mm
12:10 AM 31.5°F-0.3°C 21.8°F-5.7°C 67% Calm Calm -- 30.56 in1034.9 mb 0.00 in0.0 mm 0.00 in/hr0.0 mm/hr 0.00 in0.0 mm
12:20 AM 31.2°F-0.4°C 21.9°F-5.6°C 68% Calm Calm -- 30.57 in1035.2 mb 0.00 in0.0 mm 0.00 in/hr0.0 mm/hr 0.00 in0.0 mm
12:30 AM 30.9°F-0.6°C 22.3°F-5.4°C 70% Calm Calm 1.0 mph1.6 kmh 30.57 in1035.2 mb 0.00 in0.0 mm 0.00 in/hr0.0 mm/hr 0.00 in0.0 mm
12:40 AM 30.7°F-0.7°C 22.4°F-5.3°C 71% Calm Calm 1.0 mph1.6 kmh 30.58 in1035.6 mb 0.00 in0.0 mm 0.00 in/hr0.0 mm/hr 0.00 in0.0 mm
12:50 AM 30.5°F-0.8°C 21.5°F-5.8°C 69% Calm Calm 1.0 mph1.6 kmh 30.58 in1035.6 mb 0.00 in0.0 mm 0.00 in/hr0.0 mm/hr 0.00 in0.0 mm
01:00 AM 30.4°F-0.9°C 21.5°F-5.8°C 69% Calm Calm 1.0 mph1.6 kmh 30.58 in1035.6 mb 0.00 in0.0 mm 0.00 in/hr0.0 mm/hr 0.00 in0.0 mm
01:10 AM 30.3°F-0.9°C 21.7°F-5.7°C 70% Calm Calm 1.0 mph1.6 kmh 30.59 in1035.9 mb 0.00 in0.0 mm 0.00 in/hr0.0 mm/hr 0.00 in0.0 mm
01:20 AM 30.2°F-1.0°C 21.6°F-5.8°C 70% Calm Calm 2.0 mph3.2 kmh 30.59 in1035.9 mb 0.00 in0.0 mm 0.00 in/hr0.0 mm/hr 0.00 in0.0 mm
01:30 AM 30.1°F-1.1°C 21.5°F-5.8°C 70% Calm Calm 1.0 mph1.6 kmh 30.59 in1035.9 mb 0.00 in0.0 mm 0.00 in/hr0.0 mm/hr 0.00 in0.0 mm
01:40 AM 29.8°F-1.2°C 21.5°F-5.8°C 71% Calm Calm -- 30.59 in1035.9 mb 0.00 in0.0 mm 0.00 in/hr0.0 mm/hr 0.00 in0.0 mm
01:50 AM 29.7°F-1.3°C 21.5°F-5.8°C 71% Calm Calm -- 30.59 in1035.9 mb 0.00 in0.0 mm 0.00 in/hr0.0 mm/hr 0.00 in0.0 mm
02:00 AM 29.5°F-1.4°C 21.6°F-5.8°C 72% Calm Calm -- 30.59 in1035.9 mb 0.00 in0.0 mm 0.00 in/hr0.0 mm/hr 0.00 in0.0 mm
02:10 AM 29.3°F-1.5°C 21.4°F-5.9°C 72% Calm Calm -- 30.59 in1035.9 mb 0.00 in0.0 mm 0.00 in/hr0.0 mm/hr 0.00 in0.0 mm
02:20 AM 29.2°F-1.6°C 21.3°F-5.9°C 72% Calm Calm -- 30.60 in1036.2 mb 0.00 in0.0 mm 0.00 in/hr0.0 mm/hr 0.00 in0.0 mm
02:30 AM 28.9°F-1.7°C 21.0°F-6.1°C 72% Calm Calm -- 30.60 in1036.2 mb 0.00 in0.0 mm 0.00 in/hr0.0 mm/hr 0.00 in0.0 mm
02:40 AM 28.7°F-1.8°C 20.8°F-6.2°C 72% Calm Calm -- 30.60 in1036.2 mb 0.00 in0.0 mm 0.00 in/hr0.0 mm/hr 0.00 in0.0 mm
02:50 AM 28.5°F-1.9°C 20.6°F-6.3°C 72% Calm Calm -- 30.60 in1036.2 mb 0.00 in0.0 mm 0.00 in/hr0.0 mm/hr 0.00 in0.0 mm
03:00 AM 28.4°F-2.0°C 20.9°F-6.2°C 73% Calm Calm -- 30.60 in1036.2 mb 0.00 in0.0 mm 0.00 in/hr0.0 mm/hr 0.00 in0.0 mm
03:10 AM 28.3°F-2.1°C 21.1°F-6.1°C 74% Calm Calm -- 30.61 in1036.6 mb 0.00 in0.0 mm 0.00 in/hr0.0 mm/hr 0.00 in0.0 mm
03:20 AM 28.2°F-2.1°C 21.3°F-5.9°C 75% Calm Calm -- 30.62 in1036.9 mb 0.00 in0.0 mm 0.00 in/hr0.0 mm/hr 0.00 in0.0 mm
03:30 AM 28.1°F-2.2°C 21.2°F-6.0°C 75% Calm Calm -- 30.62 in1036.9 mb 0.00 in0.0 mm 0.00 in/hr0.0 mm/hr 0.00 in0.0 mm
03:40 AM 28.0°F-2.2°C 21.1°F-6.1°C 75% Calm Calm 1.0 mph1.6 kmh 30.62 in1036.9 mb 0.00 in0.0 mm 0.00 in/hr0.0 mm/hr 0.00 in0.0 mm
03:50 AM 28.0°F-2.2°C 21.7°F-5.7°C 77% Calm Calm 1.0 mph1.6 kmh 30.62 in1036.9 mb 0.00 in0.0 mm 0.00 in/hr0.0 mm/hr 0.00 in0.0 mm
04:00 AM 28.0°F-2.2°C 21.7°F-5.7°C 77% Calm Calm 2.0 mph3.2 kmh 30.62 in1036.9 mb 0.00 in0.0 mm 0.00 in/hr0.0 mm/hr 0.00 in0.0 mm
04:10 AM 28.0°F-2.2°C 22.0°F-5.6°C 78% Calm Calm 1.0 mph1.6 kmh 30.62 in1036.9 mb 0.00 in0.0 mm 0.00 in/hr0.0 mm/hr 0.00 in0.0 mm
04:20 AM 28.0°F-2.2°C 22.0°F-5.6°C 78% Calm Calm 1.0 mph1.6 kmh 30.62 in1036.9 mb 0.00 in0.0 mm 0.00 in/hr0.0 mm/hr 0.00 in0.0 mm
04:30 AM 28.0°F-2.2°C 22.0°F-5.6°C 78% Calm Calm 1.0 mph1.6 kmh 30.62 in1036.9 mb 0.00 in0.0 mm 0.00 in/hr0.0 mm/hr 0.00 in0.0 mm
04:40 AM 28.0°F-2.2°C 22.0°F-5.6°C 78% Calm Calm 1.0 mph1.6 kmh 30.62 in1036.9 mb 0.00 in0.0 mm 0.00 in/hr0.0 mm/hr 0.00 in0.0 mm
04:50 AM 28.0°F-2.2°C 22.0°F-5.6°C 78% Calm Calm 2.0 mph3.2 kmh 30.62 in1036.9 mb 0.00 in0.0 mm 0.00 in/hr0.0 mm/hr 0.00 in0.0 mm
05:00 AM 27.9°F-2.3°C 21.6°F-5.8°C 77% 1.0 mph NE1.6 kmh NE 4.0 mph6.4 kmh 30.62 in1036.9 mb 0.00 in0.0 mm 0.00 in/hr0.0 mm/hr 0.00 in0.0 mm
05:10 AM 27.9°F-2.3°C 21.0°F-6.1°C 75% 1.0 mph NE1.6 kmh NE 4.0 mph6.4 kmh 30.63 in1037.3 mb 0.00 in0.0 mm 0.00 in/hr0.0 mm/hr 0.00 in0.0 mm
05:20 AM 27.9°F-2.3°C 20.7°F-6.3°C 74% 1.0 mph NE1.6 kmh NE 6.0 mph9.7 kmh 30.63 in1037.3 mb 0.00 in0.0 mm 0.00 in/hr0.0 mm/hr 0.00 in0.0 mm
05:30 AM 28.1°F-2.2°C 20.9°F-6.2°C 74% 1.0 mph NE1.6 kmh NE 6.0 mph9.7 kmh 30.63 in1037.3 mb 0.00 in0.0 mm 0.00 in/hr0.0 mm/hr 0.00 in0.0 mm
05:40 AM 28.4°F-2.0°C 21.2°F-6.0°C 74% 1.0 mph NE1.6 kmh NE 9.0 mph14.5 kmh 30.62 in1036.9 mb 0.00 in0.0 mm 0.00 in/hr0.0 mm/hr 0.00 in0.0 mm
05:50 AM 28.6°F-1.9°C 20.7°F-6.3°C 72% 1.0 mph ENE1.6 kmh ENE 5.0 mph8.0 kmh 30.63 in1037.3 mb 0.00 in0.0 mm 0.00 in/hr0.0 mm/hr 0.00 in0.0 mm
06:00 AM 28.8°F-1.8°C 20.6°F-6.3°C 71% 1.0 mph ENE1.6 kmh ENE 5.0 mph8.0 kmh 30.63 in1037.3 mb 0.00 in0.0 mm 0.00 in/hr0.0 mm/hr 0.00 in0.0 mm
06:10 AM 28.8°F-1.8°C 20.6°F-6.3°C 71% Calm Calm 3.0 mph4.8 kmh 30.64 in1037.6 mb 0.00 in0.0 mm 0.00 in/hr0.0 mm/hr 0.00 in0.0 mm
06:20 AM 28.9°F-1.7°C 20.3°F-6.5°C 70% Calm Calm 3.0 mph4.8 kmh 30.64 in1037.6 mb 0.00 in0.0 mm 0.00 in/hr0.0 mm/hr 0.00 in0.0 mm
06:30 AM 29.0°F-1.7°C 20.8°F-6.2°C 71% Calm Calm 3.0 mph4.8 kmh 30.65 in1037.9 mb 0.00 in0.0 mm 0.00 in/hr0.0 mm/hr 0.00 in0.0 mm
06:40 AM 29.0°F-1.7°C 20.8°F-6.2°C 71% Calm Calm 3.0 mph4.8 kmh 30.65 in1037.9 mb 0.00 in0.0 mm 0.00 in/hr0.0 mm/hr 0.00 in0.0 mm
06:50 AM 29.1°F-1.6°C 21.2°F-6.0°C 72% Calm Calm 2.0 mph3.2 kmh 30.66 in1038.3 mb 0.00 in0.0 mm 0.00 in/hr0.0 mm/hr 0.00 in0.0 mm
07:00 AM 29.2°F-1.6°C 21.3°F-5.9°C 72% Calm Calm 2.0 mph3.2 kmh 30.66 in1038.3 mb 0.00 in0.0 mm 0.00 in/hr0.0 mm/hr 0.00 in0.0 mm
07:10 AM 29.4°F-1.4°C 21.5°F-5.8°C 72% Calm Calm 3.0 mph4.8 kmh 30.67 in1038.6 mb 0.00 in0.0 mm 0.00 in/hr0.0 mm/hr 0.00 in0.0 mm
07:20 AM 29.8°F-1.2°C 22.2°F-5.4°C 73% Calm Calm 3.0 mph4.8 kmh 30.68 in1038.9 mb 0.00 in0.0 mm 0.00 in/hr0.0 mm/hr 0.00 in0.0 mm
07:30 AM 30.3°F-0.9°C 22.4°F-5.3°C 72% 1.0 mph ENE1.6 kmh ENE 4.0 mph6.4 kmh 30.68 in1038.9 mb 0.00 in0.0 mm 0.00 in/hr0.0 mm/hr 0.00 in0.0 mm
07:40 AM 31.1°F-0.5°C 22.8°F-5.1°C 71% 1.0 mph NE1.6 kmh NE 4.0 mph6.4 kmh 30.69 in1039.3 mb 0.00 in0.0 mm 0.00 in/hr0.0 mm/hr 0.00 in0.0 mm
07:50 AM 32.0°F0.0°C 22.3°F-5.4°C 67% Calm Calm 7.0 mph11.3 kmh 30.69 in1039.3 mb 0.00 in0.0 mm 0.00 in/hr0.0 mm/hr 0.00 in0.0 mm
08:00 AM 33.1°F0.6°C 22.2°F-5.4°C 64% 4.0 mph NE6.4 kmh NE 11.0 mph17.7 kmh 30.69 in1039.3 mb 0.00 in0.0 mm 0.00 in/hr0.0 mm/hr 0.00 in0.0 mm
08:10 AM 34.4°F1.3°C 21.6°F-5.8°C 59% 5.0 mph E8.0 kmh E 12.0 mph19.3 kmh 30.69 in1039.3 mb 0.00 in0.0 mm 0.00 in/hr0.0 mm/hr 0.00 in0.0 mm
08:20 AM 35.3°F1.8°C 21.2°F-6.0°C 56% 5.0 mph ENE8.0 kmh ENE 11.0 mph17.7 kmh 30.70 in1039.6 mb 0.00 in0.0 mm 0.00 in/hr0.0 mm/hr 0.00 in0.0 mm
08:30 AM 36.0°F2.2°C 21.4°F-5.9°C 55% 4.0 mph ESE6.4 kmh ESE 9.0 mph14.5 kmh 30.70 in1039.6 mb 0.00 in0.0 mm 0.00 in/hr0.0 mm/hr 0.00 in0.0 mm
08:40 AM 37.1°F2.8°C 21.1°F-6.1°C 52% 7.0 mph NE11.3 kmh NE 12.0 mph19.3 kmh 30.70 in1039.6 mb 0.00 in0.0 mm 0.00 in/hr0.0 mm/hr 0.00 in0.0 mm
08:50 AM 37.8°F3.2°C 21.7°F-5.7°C 52% 5.0 mph E8.0 kmh E 9.0 mph14.5 kmh 30.70 in1039.6 mb 0.00 in0.0 mm 0.00 in/hr0.0 mm/hr 0.00 in0.0 mm
09:00 AM 38.7°F3.7°C 22.1°F-5.5°C 51% 4.0 mph NE6.4 kmh NE 11.0 mph17.7 kmh 30.70 in1039.6 mb 0.00 in0.0 mm 0.00 in/hr0.0 mm/hr 0.00 in0.0 mm
09:10 AM 39.2°F4.0°C 22.1°F-5.5°C 50% 5.0 mph NE8.0 kmh NE 10.0 mph16.1 kmh 30.70 in1039.6 mb 0.00 in0.0 mm 0.00 in/hr0.0 mm/hr 0.00 in0.0 mm
09:20 AM 39.7°F4.3°C 21.6°F-5.8°C 48% 3.0 mph NNE4.8 kmh NNE 6.0 mph9.7 kmh 30.70 in1039.6 mb 0.00 in0.0 mm 0.00 in/hr0.0 mm/hr 0.00 in0.0 mm
09:30 AM 40.4°F4.7°C 22.7°F-5.2°C 49% Calm Calm 10.0 mph16.1 kmh 30.71 in1040.0 mb 0.00 in0.0 mm 0.00 in/hr0.0 mm/hr 0.00 in0.0 mm
09:40 AM 41.1°F5.1°C 22.9°F-5.1°C 48% 5.0 mph ESE8.0 kmh ESE 9.0 mph14.5 kmh 30.71 in1040.0 mb 0.00 in0.0 mm 0.00 in/hr0.0 mm/hr 0.00 in0.0 mm
09:50 AM 41.5°F5.3°C 20.7°F-6.3°C 43% 5.0 mph ESE8.0 kmh ESE 11.0 mph17.7 kmh 30.71 in1040.0 mb 0.00 in0.0 mm 0.00 in/hr0.0 mm/hr 0.00 in0.0 mm
10:00 AM 41.8°F5.4°C 24.0°F-4.4°C 49% Calm Calm 6.0 mph9.7 kmh 30.71 in1040.0 mb 0.00 in0.0 mm 0.00 in/hr0.0 mm/hr 0.00 in0.0 mm
10:10 AM 42.3°F5.7°C 22.5°F-5.3°C 45% 2.0 mph NE3.2 kmh NE 9.0 mph14.5 kmh 30.71 in1040.0 mb 0.00 in0.0 mm 0.00 in/hr0.0 mm/hr 0.00 in0.0 mm
10:20 AM 42.9°F6.1°C 22.5°F-5.3°C 44% 4.0 mph NE6.4 kmh NE 9.0 mph14.5 kmh 30.71 in1040.0 mb 0.00 in0.0 mm 0.00 in/hr0.0 mm/hr 0.00 in0.0 mm
10:30 AM 43.1°F6.2°C 22.7°F-5.2°C 44% 4.0 mph ESE6.4 kmh ESE 8.0 mph12.9 kmh 30.71 in1040.0 mb 0.00 in0.0 mm 0.00 in/hr0.0 mm/hr 0.00 in0.0 mm
10:40 AM 43.3°F6.3°C 21.7°F-5.7°C 42% 4.0 mph NE6.4 kmh NE 10.0 mph16.1 kmh 30.71 in1040.0 mb 0.00 in0.0 mm 0.00 in/hr0.0 mm/hr 0.00 in0.0 mm
10:50 AM 44.1°F6.7°C 25.2°F-3.8°C 47% Calm Calm 9.0 mph14.5 kmh 30.71 in1040.0 mb 0.00 in0.0 mm 0.00 in/hr0.0 mm/hr 0.00 in0.0 mm
11:00 AM 44.5°F6.9°C 24.5°F-4.2°C 45% 2.0 mph E3.2 kmh E 6.0 mph9.7 kmh 30.71 in1040.0 mb 0.00 in0.0 mm 0.00 in/hr0.0 mm/hr 0.00 in0.0 mm
11:10 AM 45.1°F7.3°C 23.9°F-4.5°C 43% 3.0 mph SE4.8 kmh SE 10.0 mph16.1 kmh 30.71 in1040.0 mb 0.00 in0.0 mm 0.00 in/hr0.0 mm/hr 0.00 in0.0 mm
11:20 AM 45.3°F7.4°C 22.4°F-5.3°C 40% 4.0 mph ESE6.4 kmh ESE 10.0 mph16.1 kmh 30.70 in1039.6 mb 0.00 in0.0 mm 0.00 in/hr0.0 mm/hr 0.00 in0.0 mm
11:30 AM 45.8°F7.7°C 24.6°F-4.1°C 43% 3.0 mph ESE4.8 kmh ESE 12.0 mph19.3 kmh 30.70 in1039.6 mb 0.00 in0.0 mm 0.00 in/hr0.0 mm/hr 0.00 in0.0 mm
11:40 AM 45.9°F7.7°C 22.9°F-5.1°C 40% 1.0 mph E1.6 kmh E 7.0 mph11.3 kmh 30.70 in1039.6 mb 0.00 in0.0 mm 0.00 in/hr0.0 mm/hr 0.00 in0.0 mm
11:50 AM 46.4°F8.0°C 25.1°F-3.8°C 43% 4.0 mph SSE6.4 kmh SSE 9.0 mph14.5 kmh 30.70 in1039.6 mb 0.00 in0.0 mm 0.00 in/hr0.0 mm/hr 0.00 in0.0 mm
12:00 PM 46.4°F8.0°C 26.2°F-3.2°C 45% 3.0 mph SE4.8 kmh SE 6.0 mph9.7 kmh 30.70 in1039.6 mb 0.00 in0.0 mm 0.00 in/hr0.0 mm/hr 0.00 in0.0 mm
12:10 PM 46.5°F8.1°C 25.8°F-3.4°C 44% 1.0 mph SW1.6 kmh SW 11.0 mph17.7 kmh 30.69 in1039.3 mb 0.00 in0.0 mm 0.00 in/hr0.0 mm/hr 0.00 in0.0 mm
12:20 PM 46.7°F8.2°C 28.1°F-2.2°C 48% 1.0 mph E1.6 kmh E 9.0 mph14.5 kmh 30.69 in1039.3 mb 0.00 in0.0 mm 0.00 in/hr0.0 mm/hr 0.00 in0.0 mm
12:30 PM 47.3°F8.5°C 25.9°F-3.4°C 43% 1.0 mph SE1.6 kmh SE 9.0 mph14.5 kmh 30.69 in1039.3 mb 0.00 in0.0 mm 0.00 in/hr0.0 mm/hr 0.00 in0.0 mm
12:40 PM 47.3°F8.5°C 25.9°F-3.4°C 43% 5.0 mph SE8.0 kmh SE 13.0 mph20.9 kmh 30.68 in1038.9 mb 0.00 in0.0 mm 0.00 in/hr0.0 mm/hr 0.00 in0.0 mm
12:50 PM 47.1°F8.4°C 25.8°F-3.4°C 43% 1.0 mph E1.6 kmh E 12.0 mph19.3 kmh 30.68 in1038.9 mb 0.00 in0.0 mm 0.00 in/hr0.0 mm/hr 0.00 in0.0 mm
01:00 PM 47.5°F8.6°C 25.5°F-3.6°C 42% 3.0 mph SE4.8 kmh SE 12.0 mph19.3 kmh 30.68 in1038.9 mb 0.00 in0.0 mm 0.00 in/hr0.0 mm/hr 0.00 in0.0 mm
01:10 PM 47.8°F8.8°C 25.2°F-3.8°C 41% 6.0 mph S9.7 kmh S 12.0 mph19.3 kmh 30.68 in1038.9 mb 0.00 in0.0 mm 0.00 in/hr0.0 mm/hr 0.00 in0.0 mm
01:20 PM 47.4°F8.6°C 24.3°F-4.3°C 40% 5.0 mph S8.0 kmh S 11.0 mph17.7 kmh 30.68 in1038.9 mb 0.00 in0.0 mm 0.00 in/hr0.0 mm/hr 0.00 in0.0 mm
01:30 PM 48.0°F8.9°C 26.0°F-3.3°C 42% 2.0 mph N3.2 kmh N 10.0 mph16.1 kmh 30.67 in1038.6 mb 0.00 in0.0 mm 0.00 in/hr0.0 mm/hr 0.00 in0.0 mm
01:40 PM 48.5°F9.2°C 22.8°F-5.1°C 36% 5.0 mph SE8.0 kmh SE 11.0 mph17.7 kmh 30.67 in1038.6 mb 0.00 in0.0 mm 0.00 in/hr0.0 mm/hr 0.00 in0.0 mm
01:50 PM 48.7°F9.3°C 23.6°F-4.7°C 37% 3.0 mph SE4.8 kmh SE 10.0 mph16.1 kmh 30.67 in1038.6 mb 0.00 in0.0 mm 0.00 in/hr0.0 mm/hr 0.00 in0.0 mm
02:00 PM 48.5°F9.2°C 23.4°F-4.8°C 37% 3.0 mph NE4.8 kmh NE 10.0 mph16.1 kmh 30.67 in1038.6 mb 0.00 in0.0 mm 0.00 in/hr0.0 mm/hr 0.00 in0.0 mm
02:10 PM 49.1°F9.5°C 24.6°F-4.1°C 38% 5.0 mph SE8.0 kmh SE 16.0 mph25.7 kmh 30.67 in1038.6 mb 0.00 in0.0 mm 0.00 in/hr0.0 mm/hr 0.00 in0.0 mm
02:20 PM 49.5°F9.7°C 24.9°F-3.9°C 38% 4.0 mph SSE6.4 kmh SSE 9.0 mph14.5 kmh 30.67 in1038.6 mb 0.00 in0.0 mm 0.00 in/hr0.0 mm/hr 0.00 in0.0 mm
02:30 PM 50.1°F10.1°C 24.8°F-4.0°C 37% 5.0 mph SE8.0 kmh SE 11.0 mph17.7 kmh 30.66 in1038.3 mb 0.00 in0.0 mm 0.00 in/hr0.0 mm/hr 0.00 in0.0 mm
02:40 PM 50.0°F10.0°C 26.6°F-3.0°C 40% 5.0 mph SE8.0 kmh SE 11.0 mph17.7 kmh 30.66 in1038.3 mb 0.00 in0.0 mm 0.00 in/hr0.0 mm/hr 0.00 in0.0 mm
02:50 PM 49.7°F9.8°C 27.5°F-2.5°C 42% 6.0 mph SSE9.7 kmh SSE 10.0 mph16.1 kmh 30.65 in1037.9 mb 0.00 in0.0 mm 0.00 in/hr0.0 mm/hr 0.00 in0.0 mm
03:00 PM 49.6°F9.8°C 27.5°F-2.5°C 42% 7.0 mph S11.3 kmh S 11.0 mph17.7 kmh 30.65 in1037.9 mb 0.00 in0.0 mm 0.00 in/hr0.0 mm/hr 0.00 in0.0 mm
03:10 PM 49.9°F9.9°C 29.4°F-1.4°C 45% 3.0 mph S4.8 kmh S 10.0 mph16.1 kmh 30.65 in1037.9 mb 0.00 in0.0 mm 0.00 in/hr0.0 mm/hr 0.00 in0.0 mm
03:30 PM 50.4°F10.2°C 28.7°F-1.8°C 43% 6.0 mph SSE9.7 kmh SSE 12.0 mph19.3 kmh 30.64 in1037.6 mb 0.00 in0.0 mm 0.00 in/hr0.0 mm/hr 0.00 in0.0 mm
03:40 PM 50.5°F10.3°C 28.8°F-1.8°C 43% 4.0 mph ESE6.4 kmh ESE 10.0 mph16.1 kmh 30.64 in1037.6 mb 0.00 in0.0 mm 0.00 in/hr0.0 mm/hr 0.00 in0.0 mm
03:50 PM 49.9°F9.9°C 28.3°F-2.1°C 43% 5.0 mph ESE8.0 kmh ESE 12.0 mph19.3 kmh 30.64 in1037.6 mb 0.00 in0.0 mm 0.00 in/hr0.0 mm/hr 0.00 in0.0 mm
04:00 PM 49.6°F9.8°C 30.2°F-1.0°C 47% 3.0 mph SSE4.8 kmh SSE 14.0 mph22.5 kmh 30.63 in1037.3 mb 0.00 in0.0 mm 0.00 in/hr0.0 mm/hr 0.00 in0.0 mm
04:10 PM 49.4°F9.7°C 29.5°F-1.4°C 46% 4.0 mph SSE6.4 kmh SSE 12.0 mph19.3 kmh 30.63 in1037.3 mb 0.00 in0.0 mm 0.00 in/hr0.0 mm/hr 0.00 in0.0 mm
04:20 PM 49.2°F9.6°C 29.3°F-1.5°C 46% 4.0 mph S6.4 kmh S 15.0 mph24.1 kmh 30.63 in1037.3 mb 0.00 in0.0 mm 0.00 in/hr0.0 mm/hr 0.00 in0.0 mm
04:30 PM 49.3°F9.6°C 30.4°F-0.9°C 48% 4.0 mph SE6.4 kmh SE 13.0 mph20.9 kmh 30.63 in1037.3 mb 0.00 in0.0 mm 0.00 in/hr0.0 mm/hr 0.00 in0.0 mm
04:40 PM 49.0°F9.4°C 28.6°F-1.9°C 45% 1.0 mph S1.6 kmh S 12.0 mph19.3 kmh 30.63 in1037.3 mb 0.00 in0.0 mm 0.00 in/hr0.0 mm/hr 0.00 in0.0 mm
04:50 PM 48.6°F9.2°C 28.8°F-1.8°C 46% 6.0 mph SE9.7 kmh SE 14.0 mph22.5 kmh 30.62 in1036.9 mb 0.00 in0.0 mm 0.00 in/hr0.0 mm/hr 0.00 in0.0 mm
05:10 PM 48.2°F9.0°C 29.9°F-1.2°C 49% 2.0 mph S3.2 kmh S 16.0 mph25.7 kmh 30.62 in1036.9 mb 0.00 in0.0 mm 0.00 in/hr0.0 mm/hr 0.00 in0.0 mm
05:20 PM 48.2°F9.0°C 28.9°F-1.7°C 47% 3.0 mph SSW4.8 kmh SSW 12.0 mph19.3 kmh 30.62 in1036.9 mb 0.00 in0.0 mm 0.00 in/hr0.0 mm/hr 0.00 in0.0 mm
05:30 PM 47.9°F8.8°C 28.1°F-2.2°C 46% 5.0 mph SE8.0 kmh SE 10.0 mph16.1 kmh 30.62 in1036.9 mb 0.00 in0.0 mm 0.00 in/hr0.0 mm/hr 0.00 in0.0 mm
05:40 PM 47.6°F8.7°C 27.8°F-2.3°C 46% Calm Calm 11.0 mph17.7 kmh 30.62 in1036.9 mb 0.00 in0.0 mm 0.00 in/hr0.0 mm/hr 0.00 in0.0 mm
05:50 PM 47.6°F8.7°C 30.8°F-0.7°C 52% 3.0 mph SSW4.8 kmh SSW 13.0 mph20.9 kmh 30.62 in1036.9 mb 0.00 in0.0 mm 0.00 in/hr0.0 mm/hr 0.00 in0.0 mm
06:10 PM 46.8°F8.2°C 28.1°F-2.2°C 48% Calm Calm 7.0 mph11.3 kmh 30.62 in1036.9 mb 0.00 in0.0 mm 0.00 in/hr0.0 mm/hr 0.00 in0.0 mm
06:20 PM 46.3°F7.9°C 30.6°F-0.8°C 54% 4.0 mph SE6.4 kmh SE 10.0 mph16.1 kmh 30.62 in1036.9 mb 0.00 in0.0 mm 0.00 in/hr0.0 mm/hr 0.00 in0.0 mm
06:30 PM 45.8°F7.7°C 31.0°F-0.6°C 56% 1.0 mph S1.6 kmh S 9.0 mph14.5 kmh 30.62 in1036.9 mb 0.00 in0.0 mm 0.00 in/hr0.0 mm/hr 0.00 in0.0 mm
06:40 PM 45.3°F7.4°C 31.0°F-0.6°C 57% Calm Calm 12.0 mph19.3 kmh 30.62 in1036.9 mb 0.00 in0.0 mm 0.00 in/hr0.0 mm/hr 0.00 in0.0 mm
06:50 PM 45.0°F7.2°C 29.8°F-1.2°C 55% 1.0 mph SE1.6 kmh SE 6.0 mph9.7 kmh 30.62 in1036.9 mb 0.00 in0.0 mm 0.00 in/hr0.0 mm/hr 0.00 in0.0 mm
07:00 PM 44.6°F7.0°C 30.7°F-0.7°C 58% 4.0 mph SSW6.4 kmh SSW 9.0 mph14.5 kmh 30.62 in1036.9 mb 0.00 in0.0 mm 0.00 in/hr0.0 mm/hr 0.00 in0.0 mm
07:10 PM 44.4°F6.9°C 31.4°F-0.3°C 60% Calm Calm 6.0 mph9.7 kmh 30.62 in1036.9 mb 0.00 in0.0 mm 0.00 in/hr0.0 mm/hr 0.00 in0.0 mm
07:20 PM 44.0°F6.7°C 31.0°F-0.6°C 60% 1.0 mph S1.6 kmh S 7.0 mph11.3 kmh 30.62 in1036.9 mb 0.00 in0.0 mm 0.00 in/hr0.0 mm/hr 0.00 in0.0 mm
07:30 PM 43.6°F6.4°C 31.4°F-0.3°C 62% 2.0 mph SW3.2 kmh SW 7.0 mph11.3 kmh 30.62 in1036.9 mb 0.00 in0.0 mm 0.00 in/hr0.0 mm/hr 0.00 in0.0 mm
07:40 PM 43.3°F6.3°C 31.6°F-0.2°C 63% 1.0 mph S1.6 kmh S 6.0 mph9.7 kmh 30.62 in1036.9 mb 0.00 in0.0 mm 0.00 in/hr0.0 mm/hr 0.00 in0.0 mm
07:50 PM 42.8°F6.0°C 31.5°F-0.3°C 64% Calm Calm 6.0 mph9.7 kmh 30.62 in1036.9 mb 0.00 in0.0 mm 0.00 in/hr0.0 mm/hr 0.00 in0.0 mm
08:00 PM 42.4°F5.8°C 31.1°F-0.5°C 64% Calm Calm 2.0 mph3.2 kmh 30.62 in1036.9 mb 0.00 in0.0 mm 0.00 in/hr0.0 mm/hr 0.00 in0.0 mm
08:10 PM 41.9°F5.5°C 31.4°F-0.3°C 66% 2.0 mph SW3.2 kmh SW 6.0 mph9.7 kmh 30.62 in1036.9 mb 0.00 in0.0 mm 0.00 in/hr0.0 mm/hr 0.00 in0.0 mm
08:20 PM 41.5°F5.3°C 31.0°F-0.6°C 66% Calm Calm 5.0 mph8.0 kmh 30.62 in1036.9 mb 0.00 in0.0 mm 0.00 in/hr0.0 mm/hr 0.00 in0.0 mm
08:30 PM 41.1°F5.1°C 31.0°F-0.6°C 67% Calm Calm 5.0 mph8.0 kmh 30.62 in1036.9 mb 0.00 in0.0 mm 0.00 in/hr0.0 mm/hr 0.00 in0.0 mm
08:40 PM 40.8°F4.9°C 31.1°F-0.5°C 68% 2.0 mph SW3.2 kmh SW 6.0 mph9.7 kmh 30.62 in1036.9 mb 0.00 in0.0 mm 0.00 in/hr0.0 mm/hr 0.00 in0.0 mm
08:50 PM 40.4°F4.7°C 31.0°F-0.6°C 69% Calm Calm 6.0 mph9.7 kmh 30.62 in1036.9 mb 0.00 in0.0 mm 0.00 in/hr0.0 mm/hr 0.00 in0.0 mm
09:00 PM 40.2°F4.6°C 30.8°F-0.7°C 69% Calm Calm 4.0 mph6.4 kmh 30.62 in1036.9 mb 0.00 in0.0 mm 0.00 in/hr0.0 mm/hr 0.00 in0.0 mm
09:10 PM 39.8°F4.3°C 30.8°F-0.7°C 70% Calm Calm 3.0 mph4.8 kmh 30.62 in1036.9 mb 0.00 in0.0 mm 0.00 in/hr0.0 mm/hr 0.00 in0.0 mm
09:20 PM 39.4°F4.1°C 30.8°F-0.7°C 71% Calm Calm 3.0 mph4.8 kmh 30.62 in1036.9 mb 0.00 in0.0 mm 0.00 in/hr0.0 mm/hr 0.00 in0.0 mm
09:30 PM 39.2°F4.0°C 32.3°F0.2°C 76% Calm Calm 2.0 mph3.2 kmh 30.62 in1036.9 mb 0.00 in0.0 mm 0.00 in/hr0.0 mm/hr 0.00 in0.0 mm
09:40 PM 38.9°F3.8°C 31.0°F-0.6°C 73% Calm Calm -- 30.61 in1036.6 mb 0.00 in0.0 mm 0.00 in/hr0.0 mm/hr 0.00 in0.0 mm
09:50 PM 38.6°F3.7°C 30.7°F-0.7°C 73% Calm Calm 1.0 mph1.6 kmh 30.61 in1036.6 mb 0.00 in0.0 mm 0.00 in/hr0.0 mm/hr 0.00 in0.0 mm
10:00 PM 38.2°F3.4°C 30.3°F-0.9°C 73% Calm Calm -- 30.61 in1036.6 mb 0.00 in0.0 mm 0.00 in/hr0.0 mm/hr 0.00 in0.0 mm
10:10 PM 37.8°F3.2°C 30.6°F-0.8°C 75% Calm Calm -- 30.61 in1036.6 mb 0.00 in0.0 mm 0.00 in/hr0.0 mm/hr 0.00 in0.0 mm
10:20 PM 37.4°F3.0°C 30.9°F-0.6°C 77% Calm Calm -- 30.60 in1036.2 mb 0.00 in0.0 mm 0.00 in/hr0.0 mm/hr 0.00 in0.0 mm
10:30 PM 37.0°F2.8°C 30.8°F-0.7°C 78% Calm Calm -- 30.60 in1036.2 mb 0.00 in0.0 mm 0.00 in/hr0.0 mm/hr 0.00 in0.0 mm
10:40 PM 36.8°F2.7°C 30.6°F-0.8°C 78% Calm Calm -- 30.59 in1035.9 mb 0.00 in0.0 mm 0.00 in/hr0.0 mm/hr 0.00 in0.0 mm
10:50 PM 36.4°F2.4°C 30.5°F-0.8°C 79% Calm Calm -- 30.59 in1035.9 mb 0.00 in0.0 mm 0.00 in/hr0.0 mm/hr 0.00 in0.0 mm
11:00 PM 36.0°F2.2°C 30.4°F-0.9°C 80% Calm Calm -- 30.59 in1035.9 mb 0.00 in0.0 mm 0.00 in/hr0.0 mm/hr 0.00 in0.0 mm
11:10 PM 35.7°F2.1°C 30.4°F-0.9°C 81% Calm Calm -- 30.59 in1035.9 mb 0.00 in0.0 mm 0.00 in/hr0.0 mm/hr 0.00 in0.0 mm
11:20 PM 35.4°F1.9°C 30.2°F-1.0°C 81% Calm Calm -- 30.59 in1035.9 mb 0.00 in0.0 mm 0.00 in/hr0.0 mm/hr 0.00 in0.0 mm
11:30 PM 35.1°F1.7°C 30.2°F-1.0°C 82% Calm Calm -- 30.59 in1035.9 mb 0.00 in0.0 mm 0.00 in/hr0.0 mm/hr 0.00 in0.0 mm
11:40 PM 34.7°F1.5°C 29.8°F-1.2°C 82% Calm Calm -- 30.59 in1035.9 mb 0.00 in0.0 mm 0.00 in/hr0.0 mm/hr 0.00 in0.0 mm
11:50 PM 34.4°F1.3°C 29.8°F-1.2°C 83% Calm Calm -- 30.59 in1035.9 mb 0.00 in0.0 mm 0.00 in/hr0.0 mm/hr 0.00 in0.0 mm